Terminal Aerodrome Forecast
Issued by NWS

Home | Current Version | Previous Version | Text Only | Print | Product List | Glossary Off
Versions: 1 2 3 4 5 6 7 8 9 10 11 12 13 14 15

088
FTUS43 KICT 212320
TAFRSL
TAF
KRSL 212320Z 2200/2224 17011KT P6SM BKN250
     FM221000 17009KT P6SM FEW200 WS015/20040KT
     FM221300 18012KT P6SM FEW200
     FM221800 19014G22KT P6SM FEW090 SCT200=

USA.gov is the U.S. government's official web portal to all federal, state and local government web resources and services.